createdAt,value
2023-04-01T00:01:20.913Z,86.97
2023-04-01T00:03:48.246Z,86.85
2023-04-01T00:06:17.596Z,87.16
2023-04-01T00:08:45.544Z,85.95
2023-04-01T00:11:12.528Z,85.15
2023-04-01T00:13:39.311Z,84.84
2023-04-01T00:16:17.593Z,84.92
2023-04-01T00:18:44.819Z,84.68
2023-04-01T00:21:11.534Z,85.51
2023-04-01T00:23:38.472Z,84.23
2023-04-01T00:26:06.300Z,84.07
2023-04-01T00:28:35.168Z,84.23
2023-04-01T00:31:06.486Z,85.79
2023-04-01T00:33:33.396Z,85.95
2023-04-01T00:36:15.485Z,85.83
2023-04-01T00:38:43.501Z,85.70
2023-04-01T00:41:15.274Z,85.67
2023-04-01T00:43:50.501Z,86.42
2023-04-01T00:46:17.514Z,83.52
2023-04-01T00:48:54.077Z,84.13
2023-04-01T00:51:28.773Z,83.14
2023-04-01T00:53:57.432Z,83.66
2023-04-01T00:56:28.647Z,85.25
2023-04-01T00:59:18.563Z,85.60
2023-04-01T01:01:45.536Z,84.80
2023-04-01T01:04:33.738Z,83.45
2023-04-01T01:07:21.806Z,83.77
2023-04-01T01:09:57.612Z,83.75
2023-04-01T01:12:35.221Z,84.07
2023-04-01T01:15:20.545Z,85.14
2023-04-01T01:18:14.144Z,84.94
2023-04-01T01:20:59.158Z,82.96
2023-04-01T01:23:44.075Z,81.52
2023-04-01T01:26:35.620Z,81.99
2023-04-01T01:29:31.816Z,82.08
2023-04-01T01:32:04.537Z,82.75
2023-04-01T01:34:59.674Z,83.13
2023-04-01T01:37:29.818Z,81.44
2023-04-01T01:40:01.673Z,81.54
2023-04-01T01:42:32.479Z,82.74
2023-04-01T01:45:01.011Z,82.75
2023-04-01T01:47:29.693Z,81.53
2023-04-01T01:49:57.187Z,82.17
2023-04-01T01:52:24.859Z,82.34
2023-04-01T01:54:57.252Z,81.60
2023-04-01T01:57:34.964Z,81.10
2023-04-01T02:00:14.294Z,81.58
2023-04-01T02:02:46.429Z,82.63
2023-04-01T02:05:19.643Z,81.51
2023-04-01T02:07:54.927Z,82.26
2023-04-01T02:10:25.645Z,81.81
2023-04-01T02:12:55.234Z,79.39
2023-04-01T02:15:22.939Z,81.73
2023-04-01T02:17:51.936Z,83.42
2023-04-01T02:20:24.645Z,83.59
2023-04-01T02:22:54.148Z,81.69
2023-04-01T02:25:26.065Z,83.20
2023-04-01T02:27:54.622Z,81.46
2023-04-01T02:30:22.354Z,81.15
2023-04-01T02:32:50.309Z,80.02
2023-04-01T02:35:18.985Z,80.37
2023-04-01T02:37:49.576Z,79.44
2023-04-01T02:40:17.608Z,80.34
2023-04-01T02:42:45.538Z,80.86
2023-04-01T02:45:13.487Z,81.28
2023-04-01T02:47:40.359Z,80.77
2023-04-01T02:50:08.349Z,81.08
2023-04-01T02:52:34.944Z,79.58
2023-04-01T02:55:02.735Z,80.35
2023-04-01T02:57:30.807Z,79.27
2023-04-01T02:59:57.755Z,80.14
2023-04-01T03:02:24.486Z,80.82
2023-04-01T03:04:51.336Z,79.66
2023-04-01T03:07:18.119Z,78.49
2023-04-01T03:09:44.843Z,79.07
2023-04-01T03:12:11.551Z,79.53
2023-04-01T03:14:47.277Z,78.89
2023-04-01T03:17:13.993Z,77.93
2023-04-01T03:19:40.875Z,78.97
2023-04-01T03:22:12.023Z,79.10
2023-04-01T03:24:38.805Z,78.92
2023-04-01T03:27:05.646Z,77.70
2023-04-01T03:29:32.551Z,79.38
2023-04-01T03:31:59.911Z,79.46
2023-04-01T03:34:27.112Z,79.67
2023-04-01T03:36:54.013Z,78.21
2023-04-01T03:39:20.878Z,79.83
2023-04-01T03:41:47.971Z,79.85
2023-04-01T03:44:15.035Z,79.74
2023-04-01T03:46:42.340Z,79.85
2023-04-01T03:49:12.728Z,80.78
2023-04-01T03:51:41.078Z,81.24
2023-04-01T03:54:08.592Z,79.82
2023-04-01T03:56:35.789Z,79.59
2023-04-01T03:59:04.727Z,80.03
2023-04-01T04:01:31.763Z,80.43
2023-04-01T04:03:59.256Z,80.98
2023-04-01T04:06:27.003Z,81.79
2023-04-01T04:08:53.721Z,82.12
2023-04-01T04:11:21.974Z,79.85
2023-04-01T04:13:51.281Z,80.09
2023-04-01T04:16:18.929Z,81.61
2023-04-01T04:18:51.924Z,81.15
2023-04-01T04:21:18.980Z,80.27
2023-04-01T04:23:46.264Z,80.92
2023-04-01T04:26:16.251Z,80.95
2023-04-01T04:28:47.733Z,79.62
2023-04-01T04:31:23.852Z,79.06
2023-04-01T04:33:52.839Z,80.22
2023-04-01T04:36:19.950Z,80.03
2023-04-01T04:38:49.229Z,78.99
2023-04-01T04:41:19.042Z,78.58
2023-04-01T04:43:52.409Z,77.73
2023-04-01T04:46:20.133Z,79.14
2023-04-01T04:48:49.388Z,79.07
2023-04-01T04:51:17.786Z,77.33
2023-04-01T04:53:45.113Z,77.91
2023-04-01T04:56:12.216Z,76.67
2023-04-01T04:58:46.111Z,76.52
2023-04-01T05:01:20.855Z,76.47
2023-04-01T05:03:48.790Z,77.07
2023-04-01T05:06:16.988Z,78.05
2023-04-01T05:08:45.597Z,78.15
2023-04-01T05:11:18.353Z,77.81
2023-04-01T05:13:46.433Z,77.60
2023-04-01T05:16:18.639Z,76.72
2023-04-01T05:18:46.080Z,76.49
2023-04-01T05:21:14.759Z,78.05
2023-04-01T05:23:42.293Z,77.94
2023-04-01T05:26:12.087Z,77.61
2023-04-01T05:28:39.448Z,78.75
2023-04-01T05:31:07.415Z,78.08
2023-04-01T05:33:43.233Z,77.66
2023-04-01T05:36:13.002Z,78.82
2023-04-01T05:38:40.698Z,80.39
2023-04-01T05:41:10.474Z,79.97
2023-04-01T05:43:42.552Z,80.83
2023-04-01T05:46:29.272Z,80.19
2023-04-01T05:49:06.880Z,79.30
2023-04-01T05:51:33.875Z,79.02
2023-04-01T05:54:00.611Z,80.10
2023-04-01T05:56:28.000Z,82.09
2023-04-01T05:58:55.678Z,82.83
2023-04-01T06:01:24.220Z,83.28
2023-04-01T06:03:51.300Z,82.94
2023-04-01T06:06:29.310Z,84.31
2023-04-01T06:09:15.123Z,83.99
2023-04-01T06:12:08.090Z,84.75
2023-04-01T06:14:59.576Z,85.28
2023-04-01T06:17:46.789Z,85.14
2023-04-01T06:20:39.327Z,85.96
2023-04-01T06:23:18.363Z,86.15
2023-04-01T06:25:51.364Z,86.00
2023-04-01T06:28:36.413Z,86.18
2023-04-01T06:31:22.102Z,86.45
2023-04-01T06:34:18.822Z,86.61
2023-04-01T06:37:23.321Z,86.81
2023-04-01T06:40:05.621Z,87.10
2023-04-01T06:42:42.918Z,87.67
2023-04-01T06:45:57.679Z,87.46
2023-04-01T06:49:03.459Z,87.85
2023-04-01T06:52:32.889Z,87.02
2023-04-01T06:55:41.557Z,86.37
2023-04-01T06:58:20.705Z,86.27
2023-04-01T07:00:50.902Z,85.84
2023-04-01T07:03:17.575Z,85.21
2023-04-01T07:05:45.067Z,86.37
2023-04-01T07:08:25.140Z,86.06
2023-04-01T07:10:58.358Z,86.86
2023-04-01T07:13:53.490Z,87.47
2023-04-01T07:16:37.225Z,87.94
2023-04-01T07:19:13.498Z,88.07
2023-04-01T07:21:57.648Z,88.17
2023-04-01T07:24:39.000Z,89.40
2023-04-01T07:27:14.813Z,88.63
2023-04-01T07:29:43.750Z,87.93
2023-04-01T07:32:44.714Z,87.76
2023-04-01T07:35:17.742Z,87.60
2023-04-01T07:38:15.597Z,88.02
2023-04-01T07:41:13.635Z,89.11
2023-04-01T07:43:59.255Z,88.84
2023-04-01T07:46:52.799Z,88.02
2023-04-01T07:49:46.502Z,87.14
2023-04-01T07:52:39.869Z,87.45
2023-04-01T07:55:17.071Z,85.99
2023-04-01T07:58:13.803Z,85.56
2023-04-01T08:01:06.822Z,82.33
2023-04-01T08:04:12.792Z,80.55
2023-04-01T08:06:53.817Z,78.55
2023-04-01T08:09:39.334Z,76.38
2023-04-01T08:12:54.794Z,76.87
2023-04-01T08:16:17.056Z,77.26
2023-04-01T08:19:00.794Z,77.38
2023-04-01T08:21:52.042Z,81.54
2023-04-01T08:24:37.159Z,78.90
2023-04-01T08:27:38.046Z,74.21
2023-04-01T08:30:05.319Z,72.43
2023-04-01T08:32:38.646Z,72.09
2023-04-01T08:35:45.627Z,73.37
2023-04-01T08:38:17.734Z,73.43
2023-04-01T08:41:04.304Z,72.38
2023-04-01T08:44:28.639Z,70.53
2023-04-01T08:47:29.636Z,71.61
2023-04-01T08:49:56.761Z,72.58
2023-04-01T08:53:13.576Z,68.51
2023-04-01T08:55:55.750Z,70.19
2023-04-01T08:58:49.789Z,69.54
2023-04-01T09:01:54.947Z,71.61
2023-04-01T09:05:08.553Z,69.12
2023-04-01T09:07:59.189Z,65.48
2023-04-01T09:10:33.471Z,65.58
2023-04-01T09:13:13.225Z,67.43
2023-04-01T09:16:13.853Z,69.16
2023-04-01T09:19:20.595Z,68.49
2023-04-01T09:22:02.790Z,63.47
2023-04-01T09:24:56.536Z,64.64
2023-04-01T09:27:36.211Z,66.73
2023-04-01T09:30:09.440Z,62.36
2023-04-01T09:32:59.903Z,64.54
2023-04-01T09:35:31.735Z,65.57
2023-04-01T09:38:07.315Z,66.61
2023-04-01T09:40:49.942Z,62.64
2023-04-01T09:43:57.644Z,56.98
2023-04-01T09:46:27.821Z,57.10
2023-04-01T09:49:06.426Z,58.90
2023-04-01T09:51:47.530Z,60.94
2023-04-01T09:54:45.553Z,60.76
2023-04-01T09:57:46.864Z,55.13
2023-04-01T10:00:40.938Z,50.34
2023-04-01T10:03:27.241Z,54.88
2023-04-01T10:05:55.710Z,52.31
2023-04-01T10:08:44.412Z,49.95
2023-04-01T10:11:22.481Z,47.55
2023-04-01T10:14:31.877Z,50.30
2023-04-01T10:17:27.322Z,50.24
2023-04-01T10:20:17.378Z,48.17
2023-04-01T10:23:04.579Z,48.39
2023-04-01T10:26:18.914Z,48.49
2023-04-01T10:29:03.921Z,48.08
2023-04-01T10:32:15.476Z,45.50
2023-04-01T10:35:00.999Z,44.13
2023-04-01T10:37:56.908Z,45.36
2023-04-01T10:40:38.022Z,43.16
2023-04-01T10:43:58.187Z,44.46
2023-04-01T10:46:50.171Z,42.47
2023-04-01T10:49:38.782Z,46.49
2023-04-01T10:52:30.614Z,44.31
2023-04-01T10:55:48.404Z,42.48
2023-04-01T10:58:42.560Z,41.75
2023-04-01T11:01:52.576Z,41.08
2023-04-01T11:05:08.572Z,41.13
2023-04-01T11:08:42.603Z,39.76
2023-04-01T11:11:35.734Z,35.94
2023-04-01T11:14:05.856Z,39.71
2023-04-01T11:16:53.932Z,36.23
2023-04-01T11:19:39.667Z,34.20
2023-04-01T11:22:25.730Z,36.14
2023-04-01T11:25:20.954Z,38.28
2023-04-01T11:28:25.548Z,37.02
2023-04-01T11:31:21.104Z,38.15
2023-04-01T11:33:56.150Z,36.28
2023-04-01T11:36:34.211Z,38.94
2023-04-01T11:39:26.050Z,36.26
2023-04-01T11:42:19.660Z,33.35
2023-04-01T11:45:37.497Z,38.33
2023-04-01T11:48:37.148Z,34.67
2023-04-01T11:51:33.155Z,32.76
2023-04-01T11:54:29.347Z,33.77
2023-04-01T11:57:37.543Z,35.74
2023-04-01T12:00:41.196Z,34.39
2023-04-01T12:03:29.453Z,32.70
2023-04-01T12:06:06.306Z,34.14
2023-04-01T12:09:00.732Z,33.67
2023-04-01T12:11:31.332Z,32.92
2023-04-01T12:14:12.303Z,33.42
2023-04-01T12:17:03.181Z,34.56
2023-04-01T12:19:52.975Z,33.13
2023-04-01T12:22:42.631Z,35.07
2023-04-01T12:25:27.466Z,31.67
2023-04-01T12:28:12.719Z,32.33
2023-04-01T12:30:48.876Z,31.59
2023-04-01T12:33:38.929Z,31.33
2023-04-01T12:36:09.663Z,33.73
2023-04-01T12:38:59.302Z,32.90
2023-04-01T12:41:41.551Z,34.66
2023-04-01T12:44:23.460Z,33.89
2023-04-01T12:47:08.265Z,32.15
2023-04-01T12:49:56.631Z,30.56
2023-04-01T12:52:51.232Z,34.72
2023-04-01T12:55:38.838Z,31.51
2023-04-01T12:58:44.563Z,34.53
2023-04-01T13:01:31.887Z,32.12
2023-04-01T13:04:10.665Z,31.59
2023-04-01T13:07:02.807Z,30.25
2023-04-01T13:09:38.181Z,31.39
2023-04-01T13:12:28.950Z,32.86
2023-04-01T13:14:58.656Z,29.01
2023-04-01T13:17:40.562Z,27.82
2023-04-01T13:20:10.575Z,25.86
2023-04-01T13:22:43.430Z,26.50
2023-04-01T13:26:07.014Z,28.22
2023-04-01T13:29:01.262Z,27.14
2023-04-01T13:31:32.322Z,27.24
2023-04-01T13:34:18.293Z,27.90
2023-04-01T13:36:44.849Z,28.27
2023-04-01T13:39:29.554Z,30.27
2023-04-01T13:42:33.343Z,29.97
2023-04-01T13:45:32.226Z,27.31
2023-04-01T13:48:32.952Z,30.97
2023-04-01T13:51:30.679Z,29.98
2023-04-01T13:54:12.457Z,27.94
2023-04-01T13:56:55.467Z,30.90
2023-04-01T14:00:01.055Z,29.19
2023-04-01T14:02:36.808Z,27.78
2023-04-01T14:05:19.559Z,26.97
2023-04-01T14:08:09.309Z,27.74
2023-04-01T14:11:04.184Z,27.05
2023-04-01T14:13:30.829Z,30.02
2023-04-01T14:16:22.471Z,29.15
2023-04-01T14:19:12.933Z,28.06
2023-04-01T14:21:51.535Z,29.82
2023-04-01T14:24:44.522Z,30.26
2023-04-01T14:27:42.220Z,28.23
2023-04-01T14:30:39.982Z,28.56
2023-04-01T14:33:12.509Z,31.42
2023-04-01T14:35:51.259Z,31.24
2023-04-01T14:38:20.878Z,30.81
2023-04-01T14:41:12.958Z,29.35
2023-04-01T14:43:55.864Z,26.60
2023-04-01T14:46:53.051Z,27.17
2023-04-01T14:49:42.961Z,28.57
2023-04-01T14:52:22.921Z,26.85
2023-04-01T14:54:51.680Z,24.88
2023-04-01T14:57:30.417Z,26.83
2023-04-01T15:00:15.994Z,25.49
2023-04-01T15:03:00.145Z,24.48
2023-04-01T15:06:04.754Z,26.23
2023-04-01T15:08:38.089Z,25.52
2023-04-01T15:11:27.872Z,25.44
2023-04-01T15:14:22.255Z,25.43
2023-04-01T15:17:01.221Z,26.03
2023-04-01T15:20:16.767Z,27.08
2023-04-01T15:23:12.888Z,27.22
2023-04-01T15:26:23.077Z,28.13
2023-04-01T15:29:18.150Z,28.17
2023-04-01T15:32:36.266Z,29.57
2023-04-01T15:35:21.412Z,29.07
2023-04-01T15:38:00.299Z,29.04
2023-04-01T15:40:39.100Z,30.33
2023-04-01T15:43:24.572Z,30.34
2023-04-01T15:46:09.469Z,29.53
2023-04-01T15:48:44.349Z,29.86
2023-04-01T15:51:28.716Z,29.35
2023-04-01T15:54:27.572Z,29.43
2023-04-01T15:57:13.884Z,30.54
2023-04-01T15:59:40.649Z,29.85
2023-04-01T16:02:32.152Z,29.38
2023-04-01T16:05:10.900Z,29.09
2023-04-01T16:07:56.548Z,28.52
2023-04-01T16:10:53.316Z,29.34
2023-04-01T16:13:36.346Z,29.95
2023-04-01T16:16:20.485Z,29.42
2023-04-01T16:19:16.680Z,27.62
2023-04-01T16:21:53.097Z,28.33
2023-04-01T16:24:51.106Z,28.44
2023-04-01T16:27:28.443Z,28.30
2023-04-01T16:30:36.189Z,27.73
2023-04-01T16:33:35.458Z,28.14
2023-04-01T16:36:15.059Z,28.45
2023-04-01T16:38:47.096Z,27.78
2023-04-01T16:41:33.242Z,27.23
2023-04-01T16:44:30.127Z,26.94
2023-04-01T16:47:07.156Z,27.91
2023-04-01T16:49:54.068Z,27.14
2023-04-01T16:52:54.701Z,27.27
2023-04-01T16:55:25.470Z,27.19
2023-04-01T16:57:57.260Z,27.78
2023-04-01T17:00:51.273Z,28.41
2023-04-01T17:03:30.979Z,26.77
2023-04-01T17:06:00.772Z,26.63
2023-04-01T17:08:55.210Z,26.67
2023-04-01T17:11:32.042Z,27.79
2023-04-01T17:14:11.285Z,30.43
2023-04-01T17:16:52.870Z,31.13
2023-04-01T17:19:34.817Z,31.49
2023-04-01T17:22:28.222Z,32.32
2023-04-01T17:25:05.646Z,28.50
2023-04-01T17:27:54.268Z,31.04
2023-04-01T17:30:34.469Z,33.19
2023-04-01T17:33:01.513Z,33.46
2023-04-01T17:35:34.371Z,34.11
2023-04-01T17:38:13.003Z,34.47
2023-04-01T17:40:58.676Z,34.47
2023-04-01T17:43:44.494Z,37.34
2023-04-01T17:46:35.811Z,37.31
2023-04-01T17:49:31.250Z,37.48
2023-04-01T17:52:26.063Z,40.59
2023-04-01T17:55:01.090Z,40.48
2023-04-01T17:57:39.705Z,40.86
2023-04-01T18:00:42.079Z,41.54
2023-04-01T18:03:26.666Z,41.90
2023-04-01T18:06:27.220Z,43.15
2023-04-01T18:09:01.990Z,43.02
2023-04-01T18:11:53.649Z,41.30
2023-04-01T18:14:36.895Z,40.84
2023-04-01T18:17:16.570Z,40.97
2023-04-01T18:19:59.422Z,41.81
2023-04-01T18:22:35.382Z,42.87
2023-04-01T18:25:19.344Z,43.95
2023-04-01T18:27:53.523Z,43.58
2023-04-01T18:30:32.840Z,43.59
2023-04-01T18:33:02.696Z,43.74
2023-04-01T18:35:51.585Z,44.41
2023-04-01T18:38:34.541Z,44.38
2023-04-01T18:41:16.730Z,44.08
2023-04-01T18:43:51.413Z,44.64
2023-04-01T18:46:22.105Z,44.19
2023-04-01T18:48:48.958Z,45.58
2023-04-01T18:51:26.118Z,45.06
2023-04-01T18:54:03.772Z,45.49
2023-04-01T18:56:36.396Z,45.63
2023-04-01T18:59:07.774Z,45.61
2023-04-01T19:01:46.474Z,47.37
2023-04-01T19:04:24.983Z,45.58
2023-04-01T19:06:55.961Z,45.41
2023-04-01T19:09:25.531Z,43.73
2023-04-01T19:12:14.310Z,44.06
2023-04-01T19:14:59.203Z,42.54
2023-04-01T19:18:02.867Z,42.46
2023-04-01T19:20:36.058Z,44.13
2023-04-01T19:23:39.614Z,43.98
2023-04-01T19:26:16.154Z,45.06
2023-04-01T19:29:07.472Z,44.13
2023-04-01T19:31:52.449Z,44.94
2023-04-01T19:34:47.218Z,45.16
2023-04-01T19:37:22.664Z,45.16
2023-04-01T19:39:54.774Z,45.63
2023-04-01T19:42:51.950Z,46.66
2023-04-01T19:45:38.918Z,46.60
2023-04-01T19:48:39.616Z,49.02
2023-04-01T19:51:32.473Z,47.68
2023-04-01T19:54:17.798Z,48.20
2023-04-01T19:56:53.893Z,47.92
2023-04-01T19:59:49.368Z,48.56
2023-04-01T20:02:46.239Z,48.49
2023-04-01T20:05:45.307Z,50.12
2023-04-01T20:08:17.024Z,49.31
2023-04-01T20:11:02.887Z,49.31
2023-04-01T20:13:41.568Z,49.36
2023-04-01T20:16:11.002Z,49.22
2023-04-01T20:18:46.469Z,49.15
2023-04-01T20:21:16.320Z,50.08
2023-04-01T20:24:03.295Z,49.48
2023-04-01T20:26:42.488Z,49.63
2023-04-01T20:29:15.419Z,50.50
2023-04-01T20:31:43.766Z,50.39
2023-04-01T20:34:20.070Z,49.99
2023-04-01T20:36:58.939Z,50.15
2023-04-01T20:40:15.650Z,49.84
2023-04-01T20:42:42.324Z,48.16
2023-04-01T20:45:27.904Z,48.30
2023-04-01T20:48:28.489Z,48.82
2023-04-01T20:51:00.445Z,49.07
2023-04-01T20:53:41.716Z,49.08
2023-04-01T20:56:14.491Z,49.79
2023-04-01T20:59:12.043Z,49.11
2023-04-01T21:01:56.827Z,49.74
2023-04-01T21:04:50.484Z,49.48
2023-04-01T21:07:29.930Z,48.64
2023-04-01T21:10:21.683Z,48.83
2023-04-01T21:13:28.469Z,49.72
2023-04-01T21:16:10.849Z,49.94
2023-04-01T21:19:06.287Z,50.01
2023-04-01T21:21:43.400Z,49.93
2023-04-01T21:24:36.416Z,49.21
2023-04-01T21:27:12.015Z,49.03
2023-04-01T21:29:38.841Z,49.51
2023-04-01T21:32:31.505Z,49.55
2023-04-01T21:35:37.593Z,49.33
2023-04-01T21:38:25.059Z,48.25
2023-04-01T21:41:31.616Z,48.22
2023-04-01T21:44:19.839Z,47.81
2023-04-01T21:47:20.884Z,47.71
2023-04-01T21:50:05.621Z,48.69
2023-04-01T21:52:52.354Z,49.58
2023-04-01T21:55:37.906Z,49.58
2023-04-01T21:58:11.047Z,50.14
2023-04-01T22:00:40.763Z,49.66
2023-04-01T22:03:36.762Z,50.23
2023-04-01T22:06:09.916Z,49.74
2023-04-01T22:08:46.775Z,49.94
2023-04-01T22:11:33.726Z,50.66
2023-04-01T22:14:34.552Z,49.29
2023-04-01T22:17:14.711Z,48.42
2023-04-01T22:20:10.333Z,47.41
2023-04-01T22:22:37.220Z,48.03
2023-04-01T22:25:17.359Z,47.00
2023-04-01T22:28:06.103Z,47.03
2023-04-01T22:30:40.443Z,47.82
2023-04-01T22:33:16.725Z,47.21
2023-04-01T22:35:55.806Z,48.64
2023-04-01T22:38:47.407Z,48.50
2023-04-01T22:41:27.317Z,48.59
2023-04-01T22:43:57.706Z,48.87
2023-04-01T22:46:44.913Z,48.14
2023-04-01T22:49:41.146Z,48.29
2023-04-01T22:52:26.244Z,47.33
2023-04-01T22:54:57.163Z,48.30
2023-04-01T22:57:43.048Z,49.29
2023-04-01T23:00:28.771Z,49.31
2023-04-01T23:03:26.711Z,49.27
2023-04-01T23:05:55.780Z,49.08
2023-04-01T23:08:44.251Z,48.90
2023-04-01T23:11:26.644Z,48.78
2023-04-01T23:14:19.334Z,48.62
2023-04-01T23:16:54.545Z,49.14
2023-04-01T23:19:39.076Z,49.31
2023-04-01T23:22:44.776Z,49.56
2023-04-01T23:25:14.616Z,49.51
2023-04-01T23:28:00.190Z,49.94
2023-04-01T23:30:38.949Z,49.86
2023-04-01T23:33:20.994Z,50.74
2023-04-01T23:36:16.464Z,50.02
2023-04-01T23:38:48.166Z,48.08
2023-04-01T23:41:41.093Z,48.94
2023-04-01T23:44:14.519Z,49.27
2023-04-01T23:46:45.279Z,48.83
2023-04-01T23:49:26.602Z,48.04
2023-04-01T23:52:03.776Z,46.55
2023-04-01T23:54:41.394Z,47.53
2023-04-01T23:57:15.103Z,47.03
2023-04-01T23:59:42.199Z,47.21
